Freelance — WSP9410 — position and weather

sailwx.info

Track history (hours):
 
Tides and Currents Weather Stations Pressure Air Temp Water Temp Dewpoint Dewpoint Depression Visibility Wind Speed Wind Dir Waves Ship Positions

Freelance

Owner: BROCKMAN, DONALD C, BALBOA, CA. More information available from US FCC via Universal Licensing System and Coast Guard Vessel Documentation Center.

Last reported at 2018-Aug-16 02:37 UTC. Time now 2018-Aug-16 08:02 UTC.
Position N 33°36' W 117°54'.

Length 25 m.

Type: Passenger vessel. MMSI: 366977380.

Date/timePositionNaut miles runAvg speedWind from/ knotsBaromVisibWave heightAir tempDewpointWater temp
2018-Aug-16 02:37N 33°36' W 117°54'0 0.0
2018-Aug-16 02:28N 33°36' W 117°54'1 2.8
2018-Aug-16 01:59N 33°35' W 117°53'510.6
2018-Aug-16 01:30N 33°33' W 117°58'510.6
2018-Aug-16 01:00N 33°32' W 118°05'510.9
2018-Aug-16 00:30N 33°31' W 118°11'510.1
2018-Aug-16 00:00N 33°31' W 118°17'610.6
2018-Aug-15 23:24N 33°30' W 118°25'510.9
2018-Aug-15 22:55N 33°29' W 118°31'1 0.9
2018-Aug-15 21:29N 33°28' W 118°31'2 3.6
2018-Aug-15 20:57N 33°27' W 118°29'3 2.9
2018-Aug-15 19:48N 33°26' W 118°26'0 0.2
2018-Aug-15 19:30N 33°26' W 118°26'1 1.9
2018-Aug-15 19:00N 33°25' W 118°25'2 2.9
2018-Aug-15 18:23N 33°25' W 118°23'1 2.6
2018-Aug-15 18:00N 33°24' W 118°22'1 1.5
2018-Aug-15 17:19N 33°23' W 118°21'0 0.0
2018-Aug-15 16:56N 33°23' W 118°21'5 7.4
2018-Aug-15 16:15N 33°25' W 118°16'510.0
2018-Aug-15 15:48N 33°27' W 118°11'310.1
2018-Aug-15 15:30N 33°28' W 118°08'510.3
2018-Aug-15 14:58N 33°31' W 118°02'510.4
2018-Aug-15 14:30N 33°33' W 117°57'4 8.2
2018-Aug-15 14:00N 33°36' W 117°53'1 2.4
2018-Aug-15 13:30N 33°36' W 117°54'0 0.0
2018-Aug-15 02:46N 33°36' W 117°54'0 0.0
2018-Aug-15 02:31N 33°36' W 117°54'0 0.0
2018-Aug-15 01:59N 33°36' W 117°54'2 3.8
2018-Aug-15 01:30N 33°35' W 117°53'510.3
2018-Aug-15 01:00N 33°31' W 117°57'610.5
2018-Aug-15 00:28N 33°27' W 118°02'510.4
2018-Aug-15 00:00N 33°25' W 118°07'510.8
2018-Aug-14 23:30N 33°22' W 118°13'611.3
2018-Aug-14 23:00N 33°18' W 118°18'5 9.9
2018-Aug-14 22:30N 33°18' W 118°24'0 0.0
2018-Aug-14 21:54N 33°18' W 118°24'0 0.1
2018-Aug-14 21:23N 33°18' W 118°24'0 0.0
2018-Aug-14 20:46N 33°18' W 118°24'0 0.2
2018-Aug-14 20:26N 33°18' W 118°24'0 0.0
2018-Aug-14 19:44N 33°18' W 118°24'2 6.3
2018-Aug-14 19:29N 33°19' W 118°22'2 2.8
2018-Aug-14 18:51N 33°18' W 118°20'1 1.8
2018-Aug-14 18:26N 33°18' W 118°20'1 1.3
2018-Aug-14 18:00N 33°18' W 118°19'1 2.3
2018-Aug-14 17:30N 33°19' W 118°18'510.4
2018-Aug-14 17:00N 33°22' W 118°13'3 5.7
2018-Aug-14 16:30N 33°24' W 118°11'5 9.9
2018-Aug-14 16:00N 33°27' W 118°06'510.4
2018-Aug-14 15:30N 33°30' W 118°01'510.4
2018-Aug-14 15:01N 33°33' W 117°56'4 7.2
2018-Aug-14 14:30N 33°36' W 117°53'1 2.3
2018-Aug-14 14:00N 33°36' W 117°54'0 0.0
2018-Aug-14 02:20N 33°36' W 117°54'0 0.0
2018-Aug-14 02:00N 33°36' W 117°54'2 4.4
2018-Aug-14 01:30N 33°35' W 117°56'611.3
2018-Aug-14 01:00N 33°34' W 118°03'510.9
2018-Aug-14 00:30N 33°32' W 118°09'510.6
2018-Aug-14 00:00N 33°31' W 118°15'511.0
2018-Aug-13 23:30N 33°30' W 118°21'611.4
2018-Aug-13 23:00N 33°28' W 118°28'3 5.8
2018-Aug-13 22:30N 33°28' W 118°31'1 2.4
2018-Aug-13 22:00N 33°29' W 118°33'1 1.1
2018-Aug-13 21:30N 33°29' W 118°33'0 0.2
2018-Aug-13 21:00N 33°29' W 118°33'2 3.1
2018-Aug-13 20:30N 33°28' W 118°31'1 2.0
2018-Aug-13 20:00N 33°27' W 118°30'1 1.7
2018-Aug-13 19:30N 33°27' W 118°29'0 0.3
2018-Aug-13 19:00N 33°27' W 118°29'0 0.0
2018-Aug-13 18:28N 33°27' W 118°29'2 4.9
2018-Aug-13 17:58N 33°26' W 118°27'1 1.5
2018-Aug-13 17:20N 33°26' W 118°26'2 4.8
2018-Aug-13 16:54N 33°26' W 118°23'510.4
2018-Aug-13 16:25N 33°28' W 118°18'410.4
2018-Aug-13 16:00N 33°29' W 118°12'510.2
2018-Aug-13 15:30N 33°30' W 118°07'510.4
2018-Aug-13 15:00N 33°32' W 118°01'510.4
2018-Aug-13 14:30N 33°34' W 117°55'2 4.9
2018-Aug-13 14:00N 33°36' W 117°53'1 2.3
2018-Aug-13 13:30N 33°36' W 117°54'0 0.1
2018-Aug-13 12:58N 33°36' W 117°54'0 0.0
2018-Aug-13 12:30N 33°36' W 117°54'0 0.0
2018-Aug-13 07:48N 33°36' W 117°54'1 4.4
2018-Aug-13 07:30N 33°35' W 117°53'610.9
2018-Aug-13 07:00N 33°35' W 117°60'510.7
2018-Aug-13 06:30N 33°35' W 118°06'4 8.6
2018-Aug-13 06:00N 33°36' W 118°11'0 0.0
2018-Aug-13 05:30N 33°36' W 118°11'0 0.0
2018-Aug-13 05:00N 33°36' W 118°11'0 0.1
2018-Aug-13 04:30N 33°36' W 118°11'0 0.0
2018-Aug-13 04:00N 33°36' W 118°11'3 6.3
2018-Aug-13 03:30N 33°35' W 118°07'510.1
2018-Aug-13 03:00N 33°35' W 118°01'510.1
2018-Aug-13 02:30N 33°35' W 117°55'1 2.8
2018-Aug-13 02:00N 33°36' W 117°54'0 0.0
2018-Aug-13 01:30N 33°36' W 117°54'2 3.9
2018-Aug-13 01:00N 33°34' W 117°53'510.8
2018-Aug-13 00:30N 33°31' W 117°58'611.1
2018-Aug-13 00:00N 33°28' W 118°04'611.2
2018-Aug-12 23:30N 33°24' W 118°09'611.3
2018-Aug-12 23:00N 33°21' W 118°14'611.5
2018-Aug-12 22:30N 33°18' W 118°20'510.8
2018-Aug-12 22:00N 33°19' W 118°26'5 8.8
2018-Aug-12 21:28N 33°21' W 118°31'0 0.0
2018-Aug-12 20:10N 33°21' W 118°31'0 0.0
2018-Aug-12 20:00N 33°21' W 118°31'4 1.5
2018-Aug-12 17:26N 33°19' W 118°27'7 7.5
2018-Aug-12 16:32N 33°18' W 118°19'010.2
2018-Aug-12 16:29N 33°18' W 118°19'510.5
2018-Aug-12 15:59N 33°21' W 118°13'510.5
2018-Aug-12 15:30N 33°24' W 118°09'510.2
2018-Aug-12 15:00N 33°27' W 118°04'510.3
2018-Aug-12 14:30N 33°30' W 117°59'5 9.9
2018-Aug-12 14:00N 33°34' W 117°55'2 4.9
2018-Aug-12 13:30N 33°36' W 117°53'1 2.2
2018-Aug-12 12:59N 33°36' W 117°54'0 0.0
2018-Aug-12 07:01N 33°36' W 117°54'0 5.6
2018-Aug-12 07:00N 33°36' W 117°54'2 4.6
2018-Aug-12 06:30N 33°36' W 117°56'4 8.6
2018-Aug-12 06:00N 33°37' W 118°01'1 1.2
2018-Aug-12 05:30N 33°37' W 118°02'0 0.6
2018-Aug-12 05:00N 33°37' W 118°02'1 1.3
2018-Aug-12 04:30N 33°37' W 118°02'1 1.3
2018-Aug-12 04:00N 33°36' W 118°01'0 0.9
2018-Aug-12 03:30N 33°36' W 118°01'2 4.3
2018-Aug-12 03:00N 33°36' W 117°58'4 9.0
2018-Aug-12 02:30N 33°35' W 117°53'1 2.7
2018-Aug-12 02:00N 33°36' W 117°54'0 0.0
2018-Aug-12 01:30N 33°36' W 117°54'0 0.0
2018-Aug-12 01:00N 33°36' W 117°54'1 2.6
2018-Aug-12 00:30N 33°35' W 117°53'5 9.8
2018-Aug-12 00:00N 33°32' W 117°57'510.0
2018-Aug-11 23:30N 33°29' W 118°02'510.2
2018-Aug-11 23:00N 33°26' W 118°07'510.3
2018-Aug-11 22:30N 33°23' W 118°12'510.4
2018-Aug-11 22:00N 33°20' W 118°17'1 2.1
2018-Aug-11 21:30N 33°20' W 118°18'0 0.6
2018-Aug-11 21:00N 33°20' W 118°18'2 3.7
2018-Aug-11 20:30N 33°21' W 118°19'1 1.5
2018-Aug-11 20:01N 33°22' W 118°20'2 3.3
2018-Aug-11 19:30N 33°23' W 118°21'1 2.3
2018-Aug-11 19:00N 33°24' W 118°22'2 3.6
2018-Aug-11 18:30N 33°26' W 118°21'510.3
2018-Aug-11 18:00N 33°30' W 118°17'510.5
2018-Aug-11 17:30N 33°34' W 118°13'3 5.0
2018-Aug-11 17:00N 33°36' W 118°11'0 0.1
2018-Aug-11 16:30N 33°36' W 118°11'0 0.1
2018-Aug-11 16:00N 33°36' W 118°11'0 0.0
2018-Aug-11 15:31N 33°36' W 118°11'3 5.7
2018-Aug-11 15:01N 33°35' W 118°08'510.6
2018-Aug-11 14:30N 33°35' W 118°01'510.5
2018-Aug-11 14:00N 33°35' W 117°55'2 3.7
2018-Aug-11 13:30N 33°36' W 117°53'1 2.0
2018-Aug-11 13:00N 33°36' W 117°54'0 0.0
2018-Aug-11 08:09N 33°36' W 117°54'0 0.0
2018-Aug-11 08:00N 33°36' W 117°54'1 2.5
2018-Aug-11 07:30N 33°35' W 117°54'510.9
2018-Aug-11 07:00N 33°35' W 118°01'510.5
2018-Aug-11 06:30N 33°35' W 118°07'3 6.8
2018-Aug-11 06:00N 33°36' W 118°11'0 0.0
2018-Aug-11 05:30N 33°36' W 118°11'0 0.0
2018-Aug-11 05:00N 33°36' W 118°11'0 0.0
2018-Aug-11 04:30N 33°36' W 118°11'0 0.0
2018-Aug-11 04:00N 33°36' W 118°11'3 5.5
2018-Aug-11 03:30N 33°35' W 118°08'510.5
2018-Aug-11 02:59N 33°35' W 118°01'510.3
2018-Aug-11 02:30N 33°35' W 117°55'2 3.2
2018-Aug-11 01:59N 33°36' W 117°54'0 0.0
2018-Aug-11 01:30N 33°36' W 117°54'0 0.0
2018-Aug-11 01:00N 33°36' W 117°54'0 0.0
2018-Aug-11 00:30N 33°36' W 117°54'0 0.0
2018-Aug-11 00:00N 33°36' W 117°54'0 0.0
2018-Aug-10 23:30N 33°36' W 117°54'0 0.2
2018-Aug-10 23:00N 33°36' W 117°54'3 6.6
2018-Aug-10 22:30N 33°33' W 117°56'2 4.5
2018-Aug-10 22:00N 33°33' W 117°58'510.1
2018-Aug-10 21:30N 33°37' W 118°02'4 8.4
2018-Aug-10 21:00N 33°40' W 118°06'0 0.0
2018-Aug-10 20:30N 33°40' W 118°06'1 1.4
2018-Aug-10 20:00N 33°39' W 118°06'0 0.0
2018-Aug-10 19:30N 33°39' W 118°06'0 0.0
2018-Aug-10 19:00N 33°39' W 118°06'3 5.5
2018-Aug-10 18:30N 33°37' W 118°09'4 8.9
2018-Aug-10 18:00N 33°35' W 118°13'0 0.1
2018-Aug-10 17:30N 33°35' W 118°13'2 3.7
2018-Aug-10 17:00N 33°36' W 118°11'0 0.1
2018-Aug-10 16:30N 33°36' W 118°11'0 0.0
2018-Aug-10 16:00N 33°36' W 118°11'0 0.1
2018-Aug-10 15:30N 33°36' W 118°11'2 4.0
2018-Aug-10 15:00N 33°35' W 118°09'510.3
2018-Aug-10 14:30N 33°36' W 118°03'510.2
2018-Aug-10 14:00N 33°35' W 117°57'3 6.4
2018-Aug-10 13:30N 33°36' W 117°53'1 0.2
2018-Aug-10 07:34N 33°36' W 117°54'0 0.0
2018-Aug-10 07:30N 33°36' W 117°54'1 2.6
2018-Aug-10 07:00N 33°36' W 117°55'511.0
2018-Aug-10 06:30N 33°38' W 118°01'3 5.0
2018-Aug-10 06:00N 33°39' W 118°04'2 3.8
2018-Aug-10 05:30N 33°39' W 118°06'1 1.4
2018-Aug-10 05:00N 33°40' W 118°06'0 0.0
2018-Aug-10 04:30N 33°40' W 118°06'2 4.4
2018-Aug-10 04:00N 33°38' W 118°04'2 3.0
2018-Aug-10 03:28N 33°37' W 118°02'2 4.5
2018-Aug-10 03:00N 33°36' W 118°00'510.2
2018-Aug-10 02:30N 33°35' W 117°54'1 1.7
2018-Aug-10 01:58N 33°36' W 117°54'0 0.0
2018-Aug-10 01:30N 33°36' W 117°54'0 0.0
2018-Aug-10 00:59N 33°36' W 117°54'0 0.0
2018-Aug-10 00:30N 33°36' W 117°54'1 2.5
2018-Aug-10 00:00N 33°35' W 117°53'510.2
2018-Aug-09 23:30N 33°33' W 117°58'510.4
2018-Aug-09 23:00N 33°31' W 118°04'510.2
2018-Aug-09 22:30N 33°29' W 118°09'510.1
2018-Aug-09 22:00N 33°26' W 118°15'510.3
2018-Aug-09 21:30N 33°24' W 118°20'1 3.0
2018-Aug-09 21:00N 33°23' W 118°22'0 0.2
2018-Aug-09 20:30N 33°23' W 118°22'2 3.9
2018-Aug-09 20:00N 33°22' W 118°20'0 0.5
2018-Aug-09 19:30N 33°22' W 118°20'1 1.1
2018-Aug-09 19:00N 33°21' W 118°19'2 3.2
2018-Aug-09 18:30N 33°20' W 118°18'2 3.4
2018-Aug-09 18:00N 33°18' W 118°18'1 2.3
2018-Aug-09 17:26N 33°18' W 118°20'3 8.0
2018-Aug-09 17:00N 33°19' W 118°16'510.0
2018-Aug-09 16:30N 33°22' W 118°11'510.0
2018-Aug-09 16:00N 33°25' W 118°06'4 8.4
2018-Aug-09 15:30N 33°28' W 118°02'4 8.0
2018-Aug-09 15:00N 33°31' W 117°59'510.5
2018-Aug-09 14:30N 33°34' W 117°54'2 4.0
2018-Aug-09 14:00N 33°36' W 117°53'1 0.1
2018-Aug-09 02:05N 33°36' W 117°54'0 0.0
2018-Aug-09 02:00N 33°36' W 117°54'1 2.5
2018-Aug-09 01:30N 33°35' W 117°53'510.3
2018-Aug-09 01:01N 33°33' W 117°58'5 9.4
2018-Aug-09 00:30N 33°32' W 118°04'510.6
2018-Aug-09 00:01N 33°31' W 118°10'5 9.8
2018-Aug-08 23:31N 33°30' W 118°16'5 9.9
2018-Aug-08 23:00N 33°29' W 118°21'510.8
2018-Aug-08 22:30N 33°28' W 118°28'3 5.6
2018-Aug-08 22:01N 33°28' W 118°31'0 0.1
2018-Aug-08 21:29N 33°28' W 118°31'2 3.6
2018-Aug-08 21:00N 33°27' W 118°29'0 0.0
2018-Aug-08 20:31N 33°27' W 118°29'0 0.0
2018-Aug-08 20:01N 33°27' W 118°29'0 0.3
2018-Aug-08 19:31N 33°27' W 118°29'0 0.0
2018-Aug-08 19:00N 33°27' W 118°29'3 5.2
2018-Aug-08 18:30N 33°26' W 118°27'0 0.1
2018-Aug-08 17:59N 33°26' W 118°27'1 1.3
2018-Aug-08 17:30N 33°26' W 118°26'4 7.2
2018-Aug-08 17:00N 33°27' W 118°22'510.2
2018-Aug-08 16:30N 33°29' W 118°16'4 9.0
2018-Aug-08 16:00N 33°30' W 118°11'5 9.4
2018-Aug-08 15:30N 33°31' W 118°06'5 9.6
2018-Aug-08 15:00N 33°32' W 118°00'510.1
2018-Aug-08 14:30N 33°34' W 117°54'2 4.7
2018-Aug-08 14:00N 33°36' W 117°53'1 2.3
2018-Aug-08 13:30N 33°36' W 117°54'0 0.0
2018-Aug-08 13:01N 33°36' W 117°54'0 0.0
2018-Aug-08 01:46N 33°36' W 117°54'0 0.0
2018-Aug-08 01:30N 33°36' W 117°54'2 3.2
2018-Aug-08 01:00N 33°35' W 117°54'510.7
2018-Aug-08 00:30N 33°32' W 117°60'511.0
2018-Aug-08 00:00N 33°29' W 118°05'510.7
2018-Aug-07 23:30N 33°26' W 118°11'510.2
2018-Aug-07 23:00N 33°23' W 118°16'4 8.1
2018-Aug-07 22:30N 33°22' W 118°20'0 0.0
2018-Aug-07 22:00N 33°22' W 118°20'2 3.6
2018-Aug-07 21:30N 33°23' W 118°21'1 2.0
2018-Aug-07 21:00N 33°24' W 118°22'3 5.2
2018-Aug-07 20:30N 33°25' W 118°25'1 1.9
2018-Aug-07 20:00N 33°26' W 118°26'1 1.1
2018-Aug-07 19:30N 33°26' W 118°26'3 5.7
2018-Aug-07 18:59N 33°27' W 118°29'0 0.0
2018-Aug-07 18:30N 33°27' W 118°29'1 2.0
2018-Aug-07 18:00N 33°27' W 118°28'510.2
2018-Aug-07 17:30N 33°28' W 118°22'510.3
2018-Aug-07 17:00N 33°28' W 118°16'510.2
2018-Aug-07 16:30N 33°29' W 118°10'5 9.6
2018-Aug-07 16:00N 33°30' W 118°04'510.0
2018-Aug-07 15:30N 33°32' W 117°59'5 9.9
2018-Aug-07 15:00N 33°35' W 117°54'1 2.3
2018-Aug-07 14:29N 33°36' W 117°53'1 2.2
2018-Aug-07 13:58N 33°36' W 117°54'0 0.0
2018-Aug-07 03:15N 33°36' W 117°54'0 0.0
2018-Aug-07 03:00N 33°36' W 117°54'0 0.0
2018-Aug-07 02:30N 33°36' W 117°54'0 0.0
2018-Aug-07 02:00N 33°36' W 117°54'1 1.8
2018-Aug-07 01:30N 33°36' W 117°53'4 8.8
2018-Aug-07 01:00N 33°35' W 117°58'510.0
2018-Aug-07 00:30N 33°33' W 118°04'5 9.8
2018-Aug-07 00:00N 33°31' W 118°09'510.3
2018-Aug-06 23:30N 33°29' W 118°15'510.3
2018-Aug-06 23:00N 33°27' W 118°20'4 7.6
2018-Aug-06 22:30N 33°25' W 118°25'2 3.3
2018-Aug-06 22:00N 33°26' W 118°26'1 2.9
2018-Aug-06 21:30N 33°27' W 118°28'1 2.8
2018-Aug-06 21:00N 33°27' W 118°29'0 0.0
2018-Aug-06 20:30N 33°27' W 118°29'0 0.0
2018-Aug-06 20:00N 33°27' W 118°29'3 5.4
2018-Aug-06 19:30N 33°28' W 118°26'5 9.0
2018-Aug-06 19:00N 33°30' W 118°22'510.4
2018-Aug-06 18:30N 33°33' W 118°16'5 9.9
2018-Aug-06 18:00N 33°36' W 118°11'0 0.0
2018-Aug-06 17:30N 33°36' W 118°11'0 0.3
2018-Aug-06 17:00N 33°36' W 118°11'0 0.3
2018-Aug-06 16:30N 33°36' W 118°11'0 0.2
2018-Aug-06 16:00N 33°36' W 118°11'2 4.3
2018-Aug-06 15:30N 33°36' W 118°09'510.7
2018-Aug-06 15:00N 33°35' W 118°02'510.3
2018-Aug-06 14:30N 33°35' W 117°56'3 6.0
2018-Aug-06 14:00N 33°36' W 117°53'1 2.4
2018-Aug-06 13:30N 33°36' W 117°54'0 0.1
2018-Aug-06 13:00N 33°36' W 117°54'0 0.1
2018-Aug-06 12:30N 33°36' W 117°54'0 0.0
2018-Aug-06 07:11N 33°36' W 117°54'1 5.8
2018-Aug-06 07:00N 33°36' W 117°53'5 9.2
2018-Aug-06 06:30N 33°36' W 117°58'4 7.2
2018-Aug-06 06:01N 33°37' W 118°02'0 0.2
2018-Aug-06 05:30N 33°37' W 118°02'1 1.2
2018-Aug-06 05:01N 33°37' W 118°02'1 1.5
2018-Aug-06 04:30N 33°36' W 118°01'0 0.7
2018-Aug-06 04:00N 33°36' W 118°01'0 0.0
2018-Aug-06 03:31N 33°36' W 118°01'4 7.5
2018-Aug-06 03:00N 33°36' W 117°56'  
Track history (hours):
 
Tides and Currents Weather Stations Pressure Air Temp Water Temp Dewpoint Dewpoint Depression Visibility Wind Speed Wind Dir Waves Ship Positions

Freelance

Owner: BROCKMAN, DONALD C, BALBOA, CA. More information available from US FCC via Universal Licensing System and Coast Guard Vessel Documentation Center.

Last reported at 2018-Aug-16 02:37 UTC. Time now 2018-Aug-16 08:02 UTC.
Position N 33°36' W 117°54'.

Length 25 m.

Type: Passenger vessel. MMSI: 366977380.

Date/timePositionNaut miles runAvg speedWind from/ knotsBaromVisibWave heightAir tempDewpointWater temp
2018-Aug-16 02:37N 33°36' W 117°54'0 0.0
2018-Aug-16 02:28N 33°36' W 117°54'1 2.8
2018-Aug-16 01:59N 33°35' W 117°53'510.6
2018-Aug-16 01:30N 33°33' W 117°58'510.6
2018-Aug-16 01:00N 33°32' W 118°05'510.9
2018-Aug-16 00:30N 33°31' W 118°11'510.1
2018-Aug-16 00:00N 33°31' W 118°17'610.6
2018-Aug-15 23:24N 33°30' W 118°25'510.9
2018-Aug-15 22:55N 33°29' W 118°31'1 0.9
2018-Aug-15 21:29N 33°28' W 118°31'2 3.6
2018-Aug-15 20:57N 33°27' W 118°29'3 2.9
2018-Aug-15 19:48N 33°26' W 118°26'0 0.2
2018-Aug-15 19:30N 33°26' W 118°26'1 1.9
2018-Aug-15 19:00N 33°25' W 118°25'2 2.9
2018-Aug-15 18:23N 33°25' W 118°23'1 2.6
2018-Aug-15 18:00N 33°24' W 118°22'1 1.5
2018-Aug-15 17:19N 33°23' W 118°21'0 0.0
2018-Aug-15 16:56N 33°23' W 118°21'5 7.4
2018-Aug-15 16:15N 33°25' W 118°16'510.0
2018-Aug-15 15:48N 33°27' W 118°11'310.1
2018-Aug-15 15:30N 33°28' W 118°08'510.3
2018-Aug-15 14:58N 33°31' W 118°02'510.4
2018-Aug-15 14:30N 33°33' W 117°57'4 8.2
2018-Aug-15 14:00N 33°36' W 117°53'1 2.4
2018-Aug-15 13:30N 33°36' W 117°54'0 0.0
2018-Aug-15 02:46N 33°36' W 117°54'0 0.0
2018-Aug-15 02:31N 33°36' W 117°54'0 0.0
2018-Aug-15 01:59N 33°36' W 117°54'2 3.8
2018-Aug-15 01:30N 33°35' W 117°53'510.3
2018-Aug-15 01:00N 33°31' W 117°57'610.5
2018-Aug-15 00:28N 33°27' W 118°02'510.4
2018-Aug-15 00:00N 33°25' W 118°07'510.8
2018-Aug-14 23:30N 33°22' W 118°13'611.3
2018-Aug-14 23:00N 33°18' W 118°18'5 9.9
2018-Aug-14 22:30N 33°18' W 118°24'0 0.0
2018-Aug-14 21:54N 33°18' W 118°24'0 0.1
2018-Aug-14 21:23N 33°18' W 118°24'0 0.0
2018-Aug-14 20:46N 33°18' W 118°24'0 0.2
2018-Aug-14 20:26N 33°18' W 118°24'0 0.0
2018-Aug-14 19:44N 33°18' W 118°24'2 6.3
2018-Aug-14 19:29N 33°19' W 118°22'2 2.8
2018-Aug-14 18:51N 33°18' W 118°20'1 1.8
2018-Aug-14 18:26N 33°18' W 118°20'1 1.3
2018-Aug-14 18:00N 33°18' W 118°19'1 2.3
2018-Aug-14 17:30N 33°19' W 118°18'510.4
2018-Aug-14 17:00N 33°22' W 118°13'3 5.7
2018-Aug-14 16:30N 33°24' W 118°11'5 9.9
2018-Aug-14 16:00N 33°27' W 118°06'510.4
2018-Aug-14 15:30N 33°30' W 118°01'510.4
2018-Aug-14 15:01N 33°33' W 117°56'4 7.2
2018-Aug-14 14:30N 33°36' W 117°53'1 2.3
2018-Aug-14 14:00N 33°36' W 117°54'0 0.0
2018-Aug-14 02:20N 33°36' W 117°54'0 0.0
2018-Aug-14 02:00N 33°36' W 117°54'2 4.4
2018-Aug-14 01:30N 33°35' W 117°56'611.3
2018-Aug-14 01:00N 33°34' W 118°03'510.9
2018-Aug-14 00:30N 33°32' W 118°09'510.6
2018-Aug-14 00:00N 33°31' W 118°15'511.0
2018-Aug-13 23:30N 33°30' W 118°21'611.4
2018-Aug-13 23:00N 33°28' W 118°28'3 5.8
2018-Aug-13 22:30N 33°28' W 118°31'1 2.4
2018-Aug-13 22:00N 33°29' W 118°33'1 1.1
2018-Aug-13 21:30N 33°29' W 118°33'0 0.2
2018-Aug-13 21:00N 33°29' W 118°33'2 3.1
2018-Aug-13 20:30N 33°28' W 118°31'1 2.0
2018-Aug-13 20:00N 33°27' W 118°30'1 1.7
2018-Aug-13 19:30N 33°27' W 118°29'0 0.3
2018-Aug-13 19:00N 33°27' W 118°29'0 0.0
2018-Aug-13 18:28N 33°27' W 118°29'2 4.9
2018-Aug-13 17:58N 33°26' W 118°27'1 1.5
2018-Aug-13 17:20N 33°26' W 118°26'2 4.8
2018-Aug-13 16:54N 33°26' W 118°23'510.4
2018-Aug-13 16:25N 33°28' W 118°18'410.4
2018-Aug-13 16:00N 33°29' W 118°12'510.2
2018-Aug-13 15:30N 33°30' W 118°07'510.4
2018-Aug-13 15:00N 33°32' W 118°01'510.4
2018-Aug-13 14:30N 33°34' W 117°55'2 4.9
2018-Aug-13 14:00N 33°36' W 117°53'1 2.3
2018-Aug-13 13:30N 33°36' W 117°54'0 0.1
2018-Aug-13 12:58N 33°36' W 117°54'0 0.0
2018-Aug-13 12:30N 33°36' W 117°54'0 0.0
2018-Aug-13 07:48N 33°36' W 117°54'1 4.4
2018-Aug-13 07:30N 33°35' W 117°53'610.9
2018-Aug-13 07:00N 33°35' W 117°60'510.7
2018-Aug-13 06:30N 33°35' W 118°06'4 8.6
2018-Aug-13 06:00N 33°36' W 118°11'0 0.0
2018-Aug-13 05:30N 33°36' W 118°11'0 0.0
2018-Aug-13 05:00N 33°36' W 118°11'0 0.1
2018-Aug-13 04:30N 33°36' W 118°11'0 0.0
2018-Aug-13 04:00N 33°36' W 118°11'3 6.3
2018-Aug-13 03:30N 33°35' W 118°07'510.1
2018-Aug-13 03:00N 33°35' W 118°01'510.1
2018-Aug-13 02:30N 33°35' W 117°55'1 2.8
2018-Aug-13 02:00N 33°36' W 117°54'0 0.0
2018-Aug-13 01:30N 33°36' W 117°54'2 3.9
2018-Aug-13 01:00N 33°34' W 117°53'510.8
2018-Aug-13 00:30N 33°31' W 117°58'611.1
2018-Aug-13 00:00N 33°28' W 118°04'611.2
2018-Aug-12 23:30N 33°24' W 118°09'611.3
2018-Aug-12 23:00N 33°21' W 118°14'611.5
2018-Aug-12 22:30N 33°18' W 118°20'510.8
2018-Aug-12 22:00N 33°19' W 118°26'5 8.8
2018-Aug-12 21:28N 33°21' W 118°31'0 0.0
2018-Aug-12 20:10N 33°21' W 118°31'0 0.0
2018-Aug-12 20:00N 33°21' W 118°31'4 1.5
2018-Aug-12 17:26N 33°19' W 118°27'7 7.5
2018-Aug-12 16:32N 33°18' W 118°19'010.2
2018-Aug-12 16:29N 33°18' W 118°19'510.5
2018-Aug-12 15:59N 33°21' W 118°13'510.5
2018-Aug-12 15:30N 33°24' W 118°09'510.2
2018-Aug-12 15:00N 33°27' W 118°04'510.3
2018-Aug-12 14:30N 33°30' W 117°59'5 9.9
2018-Aug-12 14:00N 33°34' W 117°55'2 4.9
2018-Aug-12 13:30N 33°36' W 117°53'1 2.2
2018-Aug-12 12:59N 33°36' W 117°54'0 0.0
2018-Aug-12 07:01N 33°36' W 117°54'0 5.6
2018-Aug-12 07:00N 33°36' W 117°54'2 4.6
2018-Aug-12 06:30N 33°36' W 117°56'4 8.6
2018-Aug-12 06:00N 33°37' W 118°01'1 1.2
2018-Aug-12 05:30N 33°37' W 118°02'0 0.6
2018-Aug-12 05:00N 33°37' W 118°02'1 1.3
2018-Aug-12 04:30N 33°37' W 118°02'1 1.3
2018-Aug-12 04:00N 33°36' W 118°01'0 0.9
2018-Aug-12 03:30N 33°36' W 118°01'2 4.3
2018-Aug-12 03:00N 33°36' W 117°58'4 9.0
2018-Aug-12 02:30N 33°35' W 117°53'1 2.7
2018-Aug-12 02:00N 33°36' W 117°54'0 0.0
2018-Aug-12 01:30N 33°36' W 117°54'0 0.0
2018-Aug-12 01:00N 33°36' W 117°54'1 2.6
2018-Aug-12 00:30N 33°35' W 117°53'5 9.8
2018-Aug-12 00:00N 33°32' W 117°57'510.0
2018-Aug-11 23:30N 33°29' W 118°02'510.2
2018-Aug-11 23:00N 33°26' W 118°07'510.3
2018-Aug-11 22:30N 33°23' W 118°12'510.4
2018-Aug-11 22:00N 33°20' W 118°17'1 2.1
2018-Aug-11 21:30N 33°20' W 118°18'0 0.6
2018-Aug-11 21:00N 33°20' W 118°18'2 3.7
2018-Aug-11 20:30N 33°21' W 118°19'1 1.5
2018-Aug-11 20:01N 33°22' W 118°20'2 3.3
2018-Aug-11 19:30N 33°23' W 118°21'1 2.3
2018-Aug-11 19:00N 33°24' W 118°22'2 3.6
2018-Aug-11 18:30N 33°26' W 118°21'510.3
2018-Aug-11 18:00N 33°30' W 118°17'510.5
2018-Aug-11 17:30N 33°34' W 118°13'3 5.0
2018-Aug-11 17:00N 33°36' W 118°11'0 0.1
2018-Aug-11 16:30N 33°36' W 118°11'0 0.1
2018-Aug-11 16:00N 33°36' W 118°11'0 0.0
2018-Aug-11 15:31N 33°36' W 118°11'3 5.7
2018-Aug-11 15:01N 33°35' W 118°08'510.6
2018-Aug-11 14:30N 33°35' W 118°01'510.5
2018-Aug-11 14:00N 33°35' W 117°55'2 3.7
2018-Aug-11 13:30N 33°36' W 117°53'1 2.0
2018-Aug-11 13:00N 33°36' W 117°54'0 0.0
2018-Aug-11 08:09N 33°36' W 117°54'0 0.0
2018-Aug-11 08:00N 33°36' W 117°54'1 2.5
2018-Aug-11 07:30N 33°35' W 117°54'510.9
2018-Aug-11 07:00N 33°35' W 118°01'510.5
2018-Aug-11 06:30N 33°35' W 118°07'3 6.8
2018-Aug-11 06:00N 33°36' W 118°11'0 0.0
2018-Aug-11 05:30N 33°36' W 118°11'0 0.0
2018-Aug-11 05:00N 33°36' W 118°11'0 0.0
2018-Aug-11 04:30N 33°36' W 118°11'0 0.0
2018-Aug-11 04:00N 33°36' W 118°11'3 5.5
2018-Aug-11 03:30N 33°35' W 118°08'510.5
2018-Aug-11 02:59N 33°35' W 118°01'510.3
2018-Aug-11 02:30N 33°35' W 117°55'2 3.2
2018-Aug-11 01:59N 33°36' W 117°54'0 0.0
2018-Aug-11 01:30N 33°36' W 117°54'0 0.0
2018-Aug-11 01:00N 33°36' W 117°54'0 0.0
2018-Aug-11 00:30N 33°36' W 117°54'0 0.0
2018-Aug-11 00:00N 33°36' W 117°54'0 0.0
2018-Aug-10 23:30N 33°36' W 117°54'0 0.2
2018-Aug-10 23:00N 33°36' W 117°54'3 6.6
2018-Aug-10 22:30N 33°33' W 117°56'2 4.5
2018-Aug-10 22:00N 33°33' W 117°58'510.1
2018-Aug-10 21:30N 33°37' W 118°02'4 8.4
2018-Aug-10 21:00N 33°40' W 118°06'0 0.0
2018-Aug-10 20:30N 33°40' W 118°06'1 1.4
2018-Aug-10 20:00N 33°39' W 118°06'0 0.0
2018-Aug-10 19:30N 33°39' W 118°06'0 0.0
2018-Aug-10 19:00N 33°39' W 118°06'3 5.5
2018-Aug-10 18:30N 33°37' W 118°09'4 8.9
2018-Aug-10 18:00N 33°35' W 118°13'0 0.1
2018-Aug-10 17:30N 33°35' W 118°13'2 3.7
2018-Aug-10 17:00N 33°36' W 118°11'0 0.1
2018-Aug-10 16:30N 33°36' W 118°11'0 0.0
2018-Aug-10 16:00N 33°36' W 118°11'0 0.1
2018-Aug-10 15:30N 33°36' W 118°11'2 4.0
2018-Aug-10 15:00N 33°35' W 118°09'510.3
2018-Aug-10 14:30N 33°36' W 118°03'510.2
2018-Aug-10 14:00N 33°35' W 117°57'3 6.4
2018-Aug-10 13:30N 33°36' W 117°53'1 0.2
2018-Aug-10 07:34N 33°36' W 117°54'0 0.0
2018-Aug-10 07:30N 33°36' W 117°54'1 2.6
2018-Aug-10 07:00N 33°36' W 117°55'511.0
2018-Aug-10 06:30N 33°38' W 118°01'3 5.0
2018-Aug-10 06:00N 33°39' W 118°04'2 3.8
2018-Aug-10 05:30N 33°39' W 118°06'1 1.4
2018-Aug-10 05:00N 33°40' W 118°06'0 0.0
2018-Aug-10 04:30N 33°40' W 118°06'2 4.4
2018-Aug-10 04:00N 33°38' W 118°04'2 3.0
2018-Aug-10 03:28N 33°37' W 118°02'2 4.5
2018-Aug-10 03:00N 33°36' W 118°00'510.2
2018-Aug-10 02:30N 33°35' W 117°54'1 1.7
2018-Aug-10 01:58N 33°36' W 117°54'0 0.0
2018-Aug-10 01:30N 33°36' W 117°54'0 0.0
2018-Aug-10 00:59N 33°36' W 117°54'0 0.0
2018-Aug-10 00:30N 33°36' W 117°54'1 2.5
2018-Aug-10 00:00N 33°35' W 117°53'510.2
2018-Aug-09 23:30N 33°33' W 117°58'510.4
2018-Aug-09 23:00N 33°31' W 118°04'510.2
2018-Aug-09 22:30N 33°29' W 118°09'510.1
2018-Aug-09 22:00N 33°26' W 118°15'510.3
2018-Aug-09 21:30N 33°24' W 118°20'1 3.0
2018-Aug-09 21:00N 33°23' W 118°22'0 0.2
2018-Aug-09 20:30N 33°23' W 118°22'2 3.9
2018-Aug-09 20:00N 33°22' W 118°20'0 0.5
2018-Aug-09 19:30N 33°22' W 118°20'1 1.1
2018-Aug-09 19:00N 33°21' W 118°19'2 3.2
2018-Aug-09 18:30N 33°20' W 118°18'2 3.4
2018-Aug-09 18:00N 33°18' W 118°18'1 2.3
2018-Aug-09 17:26N 33°18' W 118°20'3 8.0
2018-Aug-09 17:00N 33°19' W 118°16'510.0
2018-Aug-09 16:30N 33°22' W 118°11'510.0
2018-Aug-09 16:00N 33°25' W 118°06'4 8.4
2018-Aug-09 15:30N 33°28' W 118°02'4 8.0
2018-Aug-09 15:00N 33°31' W 117°59'510.5
2018-Aug-09 14:30N 33°34' W 117°54'2 4.0
2018-Aug-09 14:00N 33°36' W 117°53'1 0.1
2018-Aug-09 02:05N 33°36' W 117°54'0 0.0
2018-Aug-09 02:00N 33°36' W 117°54'1 2.5
2018-Aug-09 01:30N 33°35' W 117°53'510.3
2018-Aug-09 01:01N 33°33' W 117°58'5 9.4
2018-Aug-09 00:30N 33°32' W 118°04'510.6
2018-Aug-09 00:01N 33°31' W 118°10'5 9.8
2018-Aug-08 23:31N 33°30' W 118°16'5 9.9
2018-Aug-08 23:00N 33°29' W 118°21'510.8
2018-Aug-08 22:30N 33°28' W 118°28'3 5.6
2018-Aug-08 22:01N 33°28' W 118°31'0 0.1
2018-Aug-08 21:29N 33°28' W 118°31'2 3.6
2018-Aug-08 21:00N 33°27' W 118°29'0 0.0
2018-Aug-08 20:31N 33°27' W 118°29'0 0.0
2018-Aug-08 20:01N 33°27' W 118°29'0 0.3
2018-Aug-08 19:31N 33°27' W 118°29'0 0.0
2018-Aug-08 19:00N 33°27' W 118°29'3 5.2
2018-Aug-08 18:30N 33°26' W 118°27'0 0.1
2018-Aug-08 17:59N 33°26' W 118°27'1 1.3
2018-Aug-08 17:30N 33°26' W 118°26'4 7.2
2018-Aug-08 17:00N 33°27' W 118°22'510.2
2018-Aug-08 16:30N 33°29' W 118°16'4 9.0
2018-Aug-08 16:00N 33°30' W 118°11'5 9.4
2018-Aug-08 15:30N 33°31' W 118°06'5 9.6
2018-Aug-08 15:00N 33°32' W 118°00'510.1
2018-Aug-08 14:30N 33°34' W 117°54'2 4.7
2018-Aug-08 14:00N 33°36' W 117°53'1 2.3
2018-Aug-08 13:30N 33°36' W 117°54'0 0.0
2018-Aug-08 13:01N 33°36' W 117°54'0 0.0
2018-Aug-08 01:46N 33°36' W 117°54'0 0.0
2018-Aug-08 01:30N 33°36' W 117°54'2 3.2
2018-Aug-08 01:00N 33°35' W 117°54'510.7
2018-Aug-08 00:30N 33°32' W 117°60'511.0
2018-Aug-08 00:00N 33°29' W 118°05'510.7
2018-Aug-07 23:30N 33°26' W 118°11'510.2
2018-Aug-07 23:00N 33°23' W 118°16'4 8.1
2018-Aug-07 22:30N 33°22' W 118°20'0 0.0
2018-Aug-07 22:00N 33°22' W 118°20'2 3.6
2018-Aug-07 21:30N 33°23' W 118°21'1 2.0
2018-Aug-07 21:00N 33°24' W 118°22'3 5.2
2018-Aug-07 20:30N 33°25' W 118°25'1 1.9
2018-Aug-07 20:00N 33°26' W 118°26'1 1.1
2018-Aug-07 19:30N 33°26' W 118°26'3 5.7
2018-Aug-07 18:59N 33°27' W 118°29'0 0.0
2018-Aug-07 18:30N 33°27' W 118°29'1 2.0
2018-Aug-07 18:00N 33°27' W 118°28'510.2
2018-Aug-07 17:30N 33°28' W 118°22'510.3
2018-Aug-07 17:00N 33°28' W 118°16'510.2
2018-Aug-07 16:30N 33°29' W 118°10'5 9.6
2018-Aug-07 16:00N 33°30' W 118°04'510.0
2018-Aug-07 15:30N 33°32' W 117°59'5 9.9
2018-Aug-07 15:00N 33°35' W 117°54'1 2.3
2018-Aug-07 14:29N 33°36' W 117°53'1 2.2
2018-Aug-07 13:58N 33°36' W 117°54'0 0.0
2018-Aug-07 03:15N 33°36' W 117°54'0 0.0
2018-Aug-07 03:00N 33°36' W 117°54'0 0.0
2018-Aug-07 02:30N 33°36' W 117°54'0 0.0
2018-Aug-07 02:00N 33°36' W 117°54'1 1.8
2018-Aug-07 01:30N 33°36' W 117°53'4 8.8
2018-Aug-07 01:00N 33°35' W 117°58'510.0
2018-Aug-07 00:30N 33°33' W 118°04'5 9.8
2018-Aug-07 00:00N 33°31' W 118°09'510.3
2018-Aug-06 23:30N 33°29' W 118°15'510.3
2018-Aug-06 23:00N 33°27' W 118°20'4 7.6
2018-Aug-06 22:30N 33°25' W 118°25'2 3.3
2018-Aug-06 22:00N 33°26' W 118°26'1 2.9
2018-Aug-06 21:30N 33°27' W 118°28'1 2.8
2018-Aug-06 21:00N 33°27' W 118°29'0 0.0
2018-Aug-06 20:30N 33°27' W 118°29'0 0.0
2018-Aug-06 20:00N 33°27' W 118°29'3 5.4
2018-Aug-06 19:30N 33°28' W 118°26'5 9.0
2018-Aug-06 19:00N 33°30' W 118°22'510.4
2018-Aug-06 18:30N 33°33' W 118°16'5 9.9
2018-Aug-06 18:00N 33°36' W 118°11'0 0.0
2018-Aug-06 17:30N 33°36' W 118°11'0 0.3
2018-Aug-06 17:00N 33°36' W 118°11'0 0.3
2018-Aug-06 16:30N 33°36' W 118°11'0 0.2
2018-Aug-06 16:00N 33°36' W 118°11'2 4.3
2018-Aug-06 15:30N 33°36' W 118°09'510.7
2018-Aug-06 15:00N 33°35' W 118°02'510.3
2018-Aug-06 14:30N 33°35' W 117°56'3 6.0
2018-Aug-06 14:00N 33°36' W 117°53'1 2.4
2018-Aug-06 13:30N 33°36' W 117°54'0 0.1
2018-Aug-06 13:00N 33°36' W 117°54'0 0.1
2018-Aug-06 12:30N 33°36' W 117°54'0 0.0
2018-Aug-06 07:11N 33°36' W 117°54'1 5.8
2018-Aug-06 07:00N 33°36' W 117°53'5 9.2
2018-Aug-06 06:30N 33°36' W 117°58'4 7.2
2018-Aug-06 06:01N 33°37' W 118°02'0 0.2
2018-Aug-06 05:30N 33°37' W 118°02'1 1.2
2018-Aug-06 05:01N 33°37' W 118°02'1 1.5
2018-Aug-06 04:30N 33°36' W 118°01'0 0.7
2018-Aug-06 04:00N 33°36' W 118°01'0 0.0
2018-Aug-06 03:31N 33°36' W 118°01'4 7.5
2018-Aug-06 03:00N 33°36' W 117°56'  

Dump ship's entire track history